Página principal
METAR-TAF:

METAR-TAF

Aeroportos :

Saint-Louis, Senegal

latitude: 16-03N, longitude: 016-27W, altura: 4 m

Observação actual do tempo

O boletim foi feito há 1 hora e 2 minutos, às 00:00 UTC
Vento 10 kt de oeste
Temperatura 26°C
Humidade 84%
Pressão 1011 hPa
Visibilidade 10 km ou mais
Nuvens fragmentadasa uma altura de 1000 ft

METAR: GOSS 160000Z 28010KT 9999 BKN010 26/23 Q1011

Hora: 01:02 (01:02 UTC)

Previsão

O boletim foi feito há 1 hora e 32 minutos, às 23:30 UTC
Previsão válida de 16 às 00 UTC a 16 às 24 UTC
Vento 10 kt de oes-noroeste
Visibilidade 10 km ou mais
Nuvens dispersasa uma altura de 1300 ft

TAF: GOSS 152330Z 1600/1624 30010KT 9999 SCT013

Observações e previsões do tempo de mais de 4000 aeroportos (mensagens METAR e TAF).

As estações disponíveis são os pontos amarelos e vermelhos sobre o mapa.

Mova o rato sobre o mapa para ver o nome da estação.

Depois clique no ponto para visualizar as observações e previsões meteorológicas.

Para alterar o mapa : clique nos botões verdes com uma cruz preta para aumentar o zoom; no botão verde com uma pitada de zoom; ou nas setas verdes para mapas adjacentes.


METAR-TAF: